x

8447387 - Borden Flats Light At Fall River, Ma (bltm3) Weather Station

5:54 - Sat 25th Feb 2017 All times are EST. -5 hours from GMT.

  • Wind
    7mph, 9mph gusts
  • Ar Temp 52°f
  • Sea Pressure 1011.3mb
  • 8447387 - Borden Flats Light At Fall River, Ma
  • 8447387 - Borden Flats Light At Fall River, Ma

More Historic Weather Station data

Upgrade to MSW Pro to gain access to the past 30 days of data for over 8000 Wavebouys and Weather Stations around the globe.

Join Pro

Comparision Forecast

View Surf forecast
   
Sáb 02/25 5:54 7 9 mph 1011.3mb 52f
5:48 9 14 mph 1011.4mb 52f
5:42 7 8 mph 1011.3mb 52f
5:36 7 9 mph 1011.5mb 52f
5:30 3 6 mph 1011.5mb 51f
5:24 5 8 mph 1011.6mb 51f
5:18 6 8 mph 1011.7mb 51f
5:12 5 6 mph 1011.7mb 48f
5:06 5 6 mph 1011.9mb 46f
5:00 5 6 mph 1011.9mb 46f
4:54 5 6 mph 1011.9mb 46f
4:48 6 7 mph 1011.8mb 47f
4:42 6 7 mph 1011.8mb 48f
4:36 7
mph
1011.8mb 48f
4:30 6
mph
1011.8mb 48f
4:24 3 6 mph 1011.8mb 51f
4:18 6 7 mph 1011.9mb 50f
4:12 6
mph
1012mb 49f
4:06 6
mph
1012mb 49f
4:00 6 7 mph 1012mb 49f
3:54 6 7 mph 1012mb 49f
3:48 5 6 mph 1012mb 51f
3:42 5 6 mph 1012mb 52f
3:36 5 6 mph 1012mb 52f
3:30 5 7 mph 1012.1mb 52f
3:24 6 7 mph 1012mb 51f
3:18 6 7 mph 1012.1mb 52f
3:12 8 10 mph 1012.1mb 52f
3:06 9 13 mph 1012mb 52f
3:00 9 10 mph 1012mb 52f
2:54 10 13 mph 1012.1mb 52f
2:48 11 13 mph 1012.1mb 53f
2:42 10 13 mph 1012.1mb 52f
2:36 11 13 mph 1012.1mb 53f
2:30 10 14 mph 1012.3mb 53f
2:24 10 14 mph 1012.4mb 52f
2:18 10 13 mph 1012.4mb 51f
2:12 10 13 mph 1012.4mb 51f
2:06 11 14 mph 1012.4mb 50f
2:00 10 13 mph 1012.4mb 51f
1:54 10 13 mph 1012.4mb 52f
1:48 9 14 mph 1012.4mb -
1:42 8 13 mph 1012.5mb -
1:36 11 14 mph 1012.5mb -
1:30 11 14 mph 1012.4mb 53f
1:24 10 14 mph 1012.4mb 53f
1:18 9 11 mph 1012.4mb 51f
1:12 7 9 mph 1012.4mb 49f
1:06 6 7 mph 1012.5mb 48f
1:00 7
mph
1012.5mb 48f
12:54 7 8 mph 1012.5mb 48f
12:48 7 8 mph 1012.5mb -
12:42 8 9 mph 1012.6mb -
12:36 8
mph
1012.6mb -
12:30 8
mph
1012.7mb 48f
12:24 7
mph
1012.7mb 48f
12:18 8 9 mph 1012.6mb 48f
12:12 9
mph
1012.7mb 48f
12:06 8 9 mph 1012.6mb 49f
12:00 9
mph
1012.7mb 49f
Sex 02/24 11:54 8 9 mph 1012.7mb 49f
11:48 9 11 mph 1012.7mb 49f
11:42 10 11 mph 1012.7mb 49f
11:36 10 11 mph 1012.7mb 50f
11:30 10
mph
1012.8mb 50f
11:24 10
mph
1012.8mb 50f
11:18 10 13 mph 1012.8mb 51f
11:12 8 10 mph 1012.9mb 51f
11:06 8 9 mph 1012.8mb 51f
11:00 8 11 mph 1012.9mb 51f
10:54 8 10 mph 1013.1mb 50f
10:48 8
mph
1013.2mb 48f
10:42 9
mph
1013.3mb 47f
10:36 9 10 mph 1013.3mb 47f
10:30 9 10 mph 1013.4mb 47f
10:24 9 10 mph 1013.4mb 47f
10:18 9 10 mph 1013.4mb 47f
10:12 8 9 mph 1013.4mb 47f
10:06 6 7 mph 1013.5mb 49f
10:00 6 7 mph 1013.4mb 49f
9:54 6 8 mph 1013.4mb 48f
9:48 6 7 mph 1013.4mb 48f
9:42 6 8 mph 1013.3mb 48f
9:36 6 7 mph 1013.3mb 49f
9:30 1 5 mph 1013.3mb 50f
9:24 3 6 mph 1013.3mb 49f
9:18 3 5 mph 1013.3mb 49f
9:12 3 6 mph 1013.4mb 49f
9:06 3 5 mph 1013.3mb 49f
9:00 6 7 mph 1013.4mb 48f
8:54 6 7 mph 1013.4mb 48f
8:48 3 7 mph 1013.4mb 48f
8:42 8 9 mph 1013.5mb 48f
8:36 9 10 mph 1013.6mb 47f
8:30 8 9 mph 1013.6mb 47f
8:24 8 9 mph 1013.7mb 47f
8:18 7 9 mph 1013.7mb 47f
8:12 6 7 mph 1013.7mb 48f
8:06 7 9 mph 1013.7mb 48f
8:00 7 8 mph 1013.8mb 48f
7:54 7 8 mph 1013.7mb 47f
7:48 7 8 mph 1013.8mb 47f
7:42 7 8 mph 1013.8mb 47f
7:36 7 8 mph 1013.9mb 47f
7:30 5 6 mph 1013.9mb 47f
7:24 3 5 mph 1013.9mb 48f
7:18 2 5 mph 1013.8mb 49f
7:12 3 5 mph 1013.9mb 48f
7:06 2 3 mph 1013.8mb 48f
7:00 5 6 mph 1013.8mb 49f
6:54 6 8 mph 1013.9mb 51f
6:48 6 9 mph 1013.9mb 53f
6:42 8 10 mph 1013.9mb 53f
6:36 6 9 mph 1013.9mb 52f
6:30 8 10 mph 1013.9mb 53f
6:24 7 10 mph 1014mb 53f
6:18 7 9 mph 1013.9mb 53f
6:12 9 14 mph 1013.8mb 54f
6:06 10 15 mph 1013.8mb 54f
6:00 8 13 mph 1013.8mb 53f
5:54 11 14 mph 1013.7mb 55f
5:48 11 14 mph 1013.6mb 53f
5:42 10 15 mph 1013.6mb 55f
5:36 10 15 mph 1013.5mb 56f
5:30 9 13 mph 1013.4mb 56f
5:24 11 15 mph 1013.4mb 56f
5:18 14 20 mph 1013.3mb 57f
5:12 15 20 mph 1013.3mb 57f
5:06 14 20 mph 1013.4mb 57f
5:00 15 18 mph 1013.3mb 57f
4:54 14 18 mph 1013.3mb 58f
4:48 15 22 mph 1013.3mb 59f
4:42 14 17 mph 1013.3mb 59f
4:36 14 18 mph 1013.3mb 59f
4:30 14 21 mph 1013.2mb 60f
4:24 16 22 mph 1013.1mb 60f
4:18 13 18 mph 1013.1mb 60f
4:12 16 22 mph 1013mb 60f
4:06 17 24 mph 1013mb 60f
4:00 18 24 mph 1013mb 60f
3:54 16 21 mph 1013.1mb 60f
3:48 18 23 mph 1013.1mb 60f
3:42 18 24 mph 1013.1mb 61f
3:36 16 21 mph 1013.2mb 60f
3:30 17 22 mph 1013.2mb 60f
3:24 17 24 mph 1013.3mb 61f
3:18 16 21 mph 1013.4mb 61f
3:12 16 23 mph 1013.4mb 62f
3:06 18 24 mph 1013.3mb 62f
3:00 21 25 mph 1013.2mb 62f
2:54 18 23 mph 1013.2mb 62f
2:48 21 28 mph 1013.2mb 63f
2:42 22 26 mph 1013.2mb 62f
2:36 22 26 mph 1013.2mb 61f
2:30 17 21 mph 1013.3mb 60f
2:24 20 24 mph 1013.2mb 60f
2:18 21 23 mph 1013.3mb 60f
2:12 21 24 mph 1013.2mb 60f
2:06 22 28 mph 1013.3mb 60f
2:00 22 26 mph 1013.3mb 60f
1:54 24 29 mph 1013.4mb 61f
1:48 23 30 mph 1013.4mb 60f
1:42 23 30 mph 1013.4mb 61f
1:36 24 31 mph 1013.4mb 61f
1:30 20 25 mph 1013.5mb 61f
1:24 18 25 mph 1013.6mb 62f
1:18 17 21 mph 1013.7mb 62f
1:12 18 23 mph 1013.7mb 62f
1:06 20 24 mph 1013.7mb 63f
1:00 18 26 mph 1013.7mb 63f
12:54 21 25 mph 1013.8mb 64f
12:48 21 25 mph 1013.8mb 64f
12:42 21 26 mph 1013.8mb 64f
12:36 18 24 mph 1014mb 63f
12:30 20 24 mph 1014mb 63f
12:24 20 25 mph 1014.1mb 63f
12:18 18 23 mph 1014.2mb 63f
12:12 21 26 mph 1014.2mb 63f
12:06 21 26 mph 1014.3mb 63f
12:00 22 25 mph 1014.4mb 62f
11:54 21 25 mph 1014.6mb 60f
11:48 17 21 mph 1014.7mb 54f
11:42 18 22 mph 1014.8mb 53f
11:36 18 20 mph 1014.9mb 54f
11:30 20 21 mph 1015mb 55f
11:24 18 20 mph 1015.1mb 55f
11:18 18 20 mph 1015.2mb 57f
11:12 16 21 mph 1015.2mb 58f
11:06 15 18 mph 1015.2mb 56f
11:00 15 18 mph 1015.2mb 51f
10:54 14 16 mph 1015.3mb 50f
10:48 11 14 mph 1015.3mb 50f
10:42 13 14 mph 1015.4mb 50f
10:36 14 15 mph 1015.4mb 49f
10:30 13 14 mph 1015.4mb 49f
10:24 11 13 mph 1015.4mb 49f
10:18 10 11 mph 1015.4mb 48f
10:12 10 11 mph 1015.3mb 48f
10:06 10 13 mph 1015.4mb 48f
10:00 14 16 mph 1015.4mb 49f
9:54 16 18 mph 1015.4mb 50f
9:48 16 18 mph 1015.3mb 49f
9:42 10 14 mph 1015.3mb 48f
9:36 8 10 mph 1015.3mb 48f
9:30 7 8 mph 1015.3mb 49f
9:24 8 10 mph 1015.4mb 49f
9:18 8 9 mph 1015.4mb 50f
9:12 9 11 mph 1015.2mb 49f
9:06 10 13 mph 1015.2mb 49f
9:00 14 17 mph 1015.2mb 49f
8:54 16 18 mph 1015mb 49f
8:48 16 18 mph 1014.9mb 50f
8:42 16 21 mph 1014.8mb 53f
8:36 13 15 mph 1014.7mb 53f
8:30 13 16 mph 1014.7mb 53f
8:24 11 16 mph 1014.8mb 52f
8:18 10 14 mph 1014.9mb 52f
8:12 11 14 mph 1014.9mb 51f
8:06 13 18 mph 1014.8mb 51f
8:00 13 18 mph 1014.8mb 51f
7:54 16 22 mph 1014.8mb 52f
7:48 15 18 mph 1014.9mb 51f
7:42 14 17 mph 1014.9mb 51f
7:36 13 16 mph 1014.9mb 49f
7:30 10 14 mph 1015mb 49f
7:24 14 18 mph 1014.9mb 50f
7:18 11 15 mph 1014.9mb 49f
7:12 11 15 mph 1014.7mb 50f
7:06 13 15 mph 1014.6mb 50f
7:00 14 16 mph 1014.6mb 49f
6:54 11 14 mph 1014.7mb 49f
6:48 11 14 mph 1014.6mb 49f
6:42 11 13 mph 1014.4mb 49f
6:36 10 13 mph 1014.3mb 49f
6:30 10 11 mph 1014.3mb 49f
6:24 10 14 mph 1014.3mb 50f
6:18 10 13 mph 1014.3mb 49f
6:12 10 11 mph 1014.4mb 49f
6:06 10 11 mph 1014.4mb 49f
6:00 8 10 mph 1014.4mb 48f
5:54 10 14 mph 1014.5mb 48f
5:48 10 14 mph 1014.5mb 49f
5:42 11 13 mph 1014.4mb 49f
5:36 14 16 mph 1014.2mb 51f
5:30 15 17 mph 1014.1mb 52f
5:24 15 18 mph 1014.1mb 53f
5:18 15 20 mph 1014.1mb 53f
5:12 15 18 mph 1014.1mb 52f
5:06 14 17 mph 1014mb 53f
5:00 14 17 mph 1014mb 52f
4:54 14 17 mph 1014mb 52f
4:48 15 20 mph 1013.9mb 52f
4:42 15 18 mph 1013.8mb 52f
4:36 14 16 mph 1013.8mb 51f
4:30 14 17 mph 1013.9mb 50f
4:24 10 13 mph 1014mb 47f
4:18 13 15 mph 1013.9mb 49f
4:12 11 14 mph 1013.9mb 50f
4:06 13 15 mph 1013.8mb 51f
4:00 14 16 mph 1013.8mb 51f
3:54 14 17 mph 1013.7mb 51f
3:48 13 18 mph 1013.7mb 51f
3:42 14 18 mph 1013.6mb 51f
3:36 15 18 mph 1013.5mb 51f
3:30 15 20 mph 1013.6mb 51f
3:24 10 14 mph 1013.8mb 49f
3:18 10 13 mph 1013.8mb 47f
3:12 10 11 mph 1013.9mb 47f
3:06 10 13 mph 1013.7mb 47f
3:00 10 11 mph 1013.5mb 47f
2:54 10 11 mph 1013.6mb 47f
2:48 11 13 mph 1013.6mb 46f
2:42 13 14 mph 1013.6mb 46f
2:36 11 14 mph 1013.6mb 47f
2:30 13 14 mph 1013.6mb 47f
2:24 13 16 mph 1013.4mb 48f
2:18 13 15 mph 1013.4mb 47f
2:12 13 15 mph 1013.5mb 47f
2:06 11 14 mph 1013.6mb 47f
2:00 9 11 mph 1013.6mb 46f
1:54 10 13 mph 1013.5mb 49f
1:48 11 15 mph 1013.5mb -
1:42 10 13 mph 1013.5mb -
1:36 9 14 mph 1013.5mb -
1:30 10 14 mph 1013.5mb 49f
1:24 10 14 mph 1013.4mb 49f
1:18 9 14 mph 1013.5mb 49f
1:12 10 13 mph 1013.5mb 49f
1:06 10 14 mph 1013.6mb 49f
1:00 7 9 mph 1013.7mb 47f
12:54 7 9 mph 1013.6mb 47f
12:48 7 9 mph 1013.5mb -
12:42 7 10 mph 1013.5mb -
12:36 9 11 mph 1013.5mb -
12:30 11 14 mph 1013.4mb 49f
12:24 11 14 mph 1013.3mb 49f
12:18 9 10 mph 1013.4mb 49f
12:12 7 10 mph 1013.3mb 50f
12:06 7 8 mph 1013.3mb 50f
12:00 8 10 mph 1013.3mb 49f
Qui 02/23 11:54 9 11 mph 1013.4mb 50f
11:48 10 13 mph 1013.2mb 50f
11:42 10 14 mph 1013.1mb 51f
11:36 9 13 mph 1013.1mb 51f
11:30 11 14 mph 1013mb 51f
11:24 11 14 mph 1013mb 51f
11:18 11 15 mph 1013mb 51f
11:12 11 15 mph 1013mb 50f
11:06 13 16 mph 1013mb 51f
11:00 13 18 mph 1012.9mb 50f
10:54 13 15 mph 1012.9mb 51f
10:48 15 20 mph 1012.8mb 51f
10:42 14 17 mph 1012.9mb 51f
10:36 14 20 mph 1012.8mb 50f
10:30 14 17 mph 1012.9mb 50f
10:24 13 15 mph 1013mb 51f
10:18 14 17 mph 1012.9mb 51f
10:12 16 20 mph 1012.8mb 51f
10:06 16 20 mph 1012.7mb 50f
10:00 17 21 mph 1012.6mb 50f
9:54 16 21 mph 1012.6mb 49f
9:48 15 18 mph 1012.7mb 49f
9:42 14 16 mph 1012.6mb 50f
9:36 14 17 mph 1012.7mb 50f
9:30 14 15 mph 1012.6mb 49f
9:24 13 14 mph 1012.8mb 48f
9:18 13 14 mph 1012.7mb 48f
9:12 14 16 mph 1012.7mb 48f
9:06 13 15 mph 1012.6mb 48f
9:00 13 14 mph 1012.7mb 49f
8:54 13 16 mph 1012.6mb 50f
8:48 13 15 mph 1012.5mb 50f
8:42 13 18 mph 1012.3mb 50f
8:36 14 18 mph 1012.3mb 50f
8:30 13 20 mph 1012.4mb 49f
8:24 11 15 mph 1012.5mb 47f
8:18 11 14 mph 1012.5mb 47f
8:12 10 11 mph 1012.5mb 47f
8:06 10 14 mph 1012.3mb 48f
8:00 10 14 mph 1012.3mb 49f
7:54 11 15 mph 1012mb 50f
7:48 16 22 mph 1011.5mb 49f
7:42 16 21 mph 1011.7mb 49f
7:36 13 16 mph 1012mb 48f
7:30 13 15 mph 1012.1mb 47f
7:24 13 15 mph 1012.2mb 47f
7:18 13 14 mph 1012.3mb 46f
7:12 13 15 mph 1012.4mb 47f
7:06 13 15 mph 1012.2mb 47f
7:00 13 15 mph 1012mb 48f
6:54 13 16 mph 1011.9mb 48f
6:48 14 16 mph 1011.8mb 48f
6:42 15 21 mph 1011.6mb 48f
6:36 16 22 mph 1011.5mb 48f
6:30 17 21 mph 1011.4mb 48f
6:24 20 24 mph 1011.3mb 48f
6:18 17 23 mph 1011.3mb 48f
6:12 15 21 mph 1011.3mb 47f
6:06 14 18 mph 1011.2mb 47f
6:00 13 17 mph 1011.1mb 47f
5:54 13 17 mph 1010.8mb 47f
5:48 14 17 mph 1010.7mb 48f
5:42 11 16 mph 1010.6mb 48f
5:36 10 13 mph 1010.6mb 48f
5:30 9 14 mph 1010.5mb 48f
5:24 11 15 mph 1010.2mb 49f
5:18 11 16 mph 1010.1mb 49f
5:12 13 18 mph 1010mb 50f
5:06 14 17 mph 1009.8mb 51f
5:00 14 18 mph 1009.6mb 52f
4:54 15 20 mph 1009.6mb 52f
4:48 14 16 mph 1009.6mb 52f
4:42 10 13 mph 1009.6mb 53f
4:36 9 11 mph 1009.7mb 52f
4:30 10 13 mph 1009.7mb 53f
4:24 10 14 mph 1009.6mb 53f
4:18 11 15 mph 1009.7mb 53f
4:12 11 15 mph 1009.7mb 53f
4:06 14 17 mph 1009.7mb 53f
4:00 13 16 mph 1009.6mb 54f
3:54 13 18 mph 1009.6mb 54f
3:48 13 21 mph 1009.6mb 53f
3:42 13 16 mph 1009.6mb 54f
3:36 14 18 mph 1009.5mb 54f
3:30 15 20 mph 1009.5mb 55f
3:24 15 18 mph 1009.4mb 55f
3:18 15 20 mph 1009.4mb 55f
3:12 16 25 mph 1009.4mb 56f
3:06 16 21 mph 1009.5mb 56f
3:00 15 18 mph 1009.6mb 56f
2:54 15 20 mph 1009.6mb 56f
2:48 16 22 mph 1009.6mb 56f
2:42 17 22 mph 1009.6mb 56f
2:36 15 17 mph 1009.6mb 56f
2:30 15 21 mph 1009.6mb 57f
2:24 17 22 mph 1009.6mb 57f
2:18 17 21 mph 1009.6mb 57f
2:12 20 23 mph 1009.6mb 57f
2:06 22 26 mph 1009.6mb 58f
2:00 20 25 mph 1009.6mb 57f
1:54 16 21 mph 1009.8mb 57f
1:48 14 17 mph 1009.8mb 57f
1:42 15 18 mph 1009.8mb 57f
1:36 14 18 mph 1009.9mb 57f
1:30 14 20 mph 1009.9mb 57f
1:24 14 17 mph 1009.9mb 57f
1:18 15 20 mph 1009.9mb 57f
1:12 14 20 mph 1010mb 58f
1:06 14 20 mph 1010mb 57f
1:00 15 18 mph 1010.1mb 57f
12:54 15 21 mph 1010.2mb 57f
12:48 16 22 mph 1010.3mb 56f
12:42 16 20 mph 1010.4mb 57f
12:36 17 22 mph 1010.4mb 56f
12:30 17 22 mph 1010.5mb 57f
12:24 16 20 mph 1010.7mb 57f
12:18 15 22 mph 1010.8mb 57f
12:12 16 22 mph 1010.8mb 56f
12:06 14 16 mph 1010.9mb 54f
12:00 15 17 mph 1011mb 56f
11:54 16 18 mph 1011.1mb 55f
11:48 15 17 mph 1011.3mb 53f
11:42 15 18 mph 1011.5mb 54f
11:36 15 17 mph 1011.6mb 53f
11:30 14 18 mph 1011.8mb 53f
11:24 15 17 mph 1011.9mb 54f
11:18 16 20 mph 1012mb 53f
11:12 15 17 mph 1012.2mb 51f
11:06 16 18 mph 1012.3mb 50f
11:00 15 18 mph 1012.3mb 49f
10:54 14 16 mph 1012.3mb 50f
10:48 14 15 mph 1012.4mb 50f
10:42 14 16 mph 1012.4mb 49f
10:36 13 14 mph 1012.4mb 49f
10:30 14
mph
1012.4mb 48f
10:24 14 15 mph 1012.5mb 47f
10:18 13
mph
1012.5mb 46f
10:12 10
mph
1012.6mb 45f
10:06 9 10 mph 1012.7mb 44f
10:00 7 8 mph 1012.7mb 43f
9:54 6 7 mph 1012.8mb 44f
9:48 7 8 mph 1012.7mb 44f
9:42 7 10 mph 1012.7mb 44f
9:36 7 9 mph 1012.7mb 43f
9:30 7
mph
1012.7mb 43f
9:24 7 8 mph 1012.8mb 42f
9:18 7
mph
1012.8mb 42f
9:12 6 7 mph 1012.8mb 42f
9:06 6 7 mph 1012.8mb 42f
9:00 6 7 mph 1012.8mb 41f
8:54 7 9 mph 1012.9mb 42f
8:48 7 8 mph 1013mb 41f
8:42 7
mph
1013mb 40f
8:36 8 9 mph 1013mb 40f
8:30 8 9 mph 1012.9mb 40f
8:24 8 10 mph 1012.9mb 40f
8:18 9 10 mph 1012.8mb 40f
8:12 7 8 mph 1012.7mb 41f
8:06 6 8 mph 1012.7mb 40f
8:00 6 8 mph 1012.7mb 40f
7:54 7 9 mph 1012.6mb 40f
7:48 9 10 mph 1012.5mb 39f
7:42 7 8 mph 1012.5mb 40f
7:36 7 8 mph 1012.5mb 40f
7:30 8
mph
1012.5mb 40f
7:24 6 7 mph 1012.6mb 40f
7:18 7
mph
1012.5mb 40f
7:12 6
mph
1012.5mb 40f
7:06 5 6 mph 1012.4mb 40f
7:00 5
mph
1012.4mb 39f
6:54  -  1 mph 1012.4mb 39f
6:48  -  mph 1012.4mb 40f
6:42 1 2 mph 1012.4mb 39f
6:36 1 3 mph 1012.4mb 40f
6:30 5
mph
1012.4mb 40f
6:24 2 3 mph 1012.3mb 39f
6:18 2 3 mph 1012.3mb 40f
6:12 2
mph
1012.2mb 39f
6:06 2 3 mph 1012.2mb 40f
6:00 2 3 mph 1012.2mb 40f
5:54 2 3 mph 1012.2mb 40f
5:48 1 2 mph 1012.2mb 40f
5:42  -  1 mph 1012.2mb 40f
5:36  -  2 mph 1012.2mb 40f
5:30 1 3 mph 1012.2mb 39f
5:24 2 3 mph 1012.2mb 40f
5:18 2 3 mph 1012.2mb 39f
5:12 3 5 mph 1012.2mb 40f
5:06 5 6 mph 1012.3mb 40f
5:00 5
mph
1012.3mb 39f
4:54 5 6 mph 1012.3mb 40f
4:48 6 7 mph 1012.2mb 40f
3:54  -  1 mph 1012.2mb 40f
3:48 2 5 mph 1012.2mb 40f
2:54 7 8 mph 1012.4mb 40f
2:48 8
mph
1012.5mb 39f
1:54  -  2 mph 1012.2mb 41f
1:48  -  1 mph 1012.4mb 42f
12:54 2 3 mph 1012.5mb 41f
12:48 5 6 mph 1012.5mb 41f
Qua 02/22 11:54 3 5 mph 1012.9mb 41f
11:48  -  1 mph 1012.7mb 41f
10:54 2 3 mph 1012.8mb 41f
10:48 2 5 mph 1012.9mb 42f
9:54 5 6 mph 1012.9mb 45f
9:48 6 7 mph 1013mb 45f
8:54 7 8 mph 1013.3mb 44f
8:48 7 9 mph 1013.3mb 45f
7:54 3 5 mph 1013mb 45f
7:48 3 5 mph 1012.9mb 45f
6:54 3 5 mph 1013.1mb 44f
6:48 2 3 mph 1013.2mb 44f
5:54 5 6 mph 1013mb 48f
5:48 3 6 mph 1012.9mb 49f
4:54 7 8 mph 1012.9mb 49f
4:48 9 11 mph 1012.8mb 47f
3:54 11
mph
1012.2mb 47f
3:48 13
mph
1012.2mb 47f
2:54 6
mph
1012.6mb 53f
2:48 6
mph
1012.6mb 53f
1:54 6
mph
1013.4mb 51f
1:48 6 7 mph 1013.6mb 50f
12:54 8
mph
1014.3mb 47f
12:48 8
mph
1014.5mb 47f
11:54 6
mph
1015.1mb 45f
11:48 6
mph
1015.1mb 45f
10:54 8 9 mph 1016mb 43f
10:48 8 9 mph 1016mb 43f
9:54 11 13 mph 1016.9mb 41f
9:48 10 11 mph 1016.9mb 41f
8:54 14 15 mph 1017.3mb 42f
8:48 14 15 mph 1017.4mb 42f
7:54 13 15 mph 1017.8mb 41f
7:48 14 15 mph 1017.8mb 41f
5:54 13 14 mph 1017.8mb 41f
5:48 13 14 mph 1017.8mb 41f
5:42 13 14 mph 1017.8mb 41f
5:36 13 14 mph 1017.8mb 41f
5:30 11 13 mph 1017.8mb 41f
5:24 11 14 mph 1017.8mb 41f
5:18 11 14 mph 1017.8mb 41f
5:12 11 13 mph 1017.9mb 41f
5:06 11 13 mph 1018mb 41f
5:00 11 13 mph 1017.9mb 41f
4:54 11 13 mph 1017.9mb 41f
4:48 13 14 mph 1017.8mb 41f
4:42 11 15 mph 1017.8mb 41f
4:36 11 14 mph 1017.9mb 41f
4:30 13 15 mph 1017.9mb 41f
4:24 10 14 mph 1018mb 41f
4:18 11 14 mph 1018.2mb 41f
4:12 10 13 mph 1018.3mb 41f
4:06 11 14 mph 1018.4mb 41f
4:00 10 11 mph 1018.5mb 40f
3:54 11 14 mph 1018.5mb 40f
3:48 11 14 mph 1018.6mb 40f
3:42 11 13 mph 1018.7mb 40f
3:36 11 14 mph 1018.7mb 41f
3:30 11 14 mph 1018.7mb 40f
3:24 11 14 mph 1018.7mb 40f
3:18 11 14 mph 1018.8mb 40f
3:12 11 13 mph 1018.8mb 40f
3:06 11 13 mph 1018.8mb 40f
3:00 11 14 mph 1018.8mb 40f
2:54 11 17 mph 1018.8mb 40f
2:48 10 13 mph 1018.7mb 40f
2:42 13 15 mph 1018.8mb 40f
2:36 13 15 mph 1018.9mb 41f
2:30 11 15 mph 1018.8mb 40f
2:24 10 15 mph 1018.8mb 40f
2:18 10 15 mph 1018.8mb 40f
2:12 10 14 mph 1018.7mb 40f
2:06 11 16 mph 1018.8mb 40f
2:00 10 14 mph 1018.9mb 40f
1:54 10 13 mph 1019mb 40f
1:48 10 14 mph 1019.2mb -
1:42 10 13 mph 1019.4mb -
1:36 9 13 mph 1019.6mb -
1:30 9 13 mph 1019.5mb 40f
1:24 10 13 mph 1019.6mb 40f
1:18 10 14 mph 1019.6mb 40f
1:12 9 13 mph 1019.7mb 40f
1:06 10 14 mph 1019.8mb 40f
1:00 10 14 mph 1020mb 40f
12:54 10 15 mph 1019.9mb 40f
12:48 11 15 mph 1020mb 40f
12:42 11 14 mph 1020.2mb 40f
12:36 10 13 mph 1020.2mb 40f
12:30 10 13 mph 1020.3mb 40f
12:24 11 15 mph 1020.4mb 40f
12:18 11 14 mph 1020.4mb 40f
12:12 11 14 mph 1020.6mb 40f
12:06 11 15 mph 1020.7mb 40f
12:00 13 16 mph 1020.6mb 40f
Ter 02/21 11:54 11 15 mph 1020.8mb 40f
11:48 11 14 mph 1020.9mb 40f
11:42 10 14 mph 1020.9mb 40f
11:36 10 15 mph 1020.9mb 40f
11:30 11 15 mph 1020.8mb 39f
11:24 11 15 mph 1020.9mb 39f
11:18 14 17 mph 1021.2mb 39f
11:12 13 17 mph 1021.4mb 39f
11:06 13 16 mph 1021.4mb 39f
11:00 13 17 mph 1021.5mb 39f
10:54 11 14 mph 1021.6mb 39f
10:48 10 14 mph 1021.6mb 39f
10:42 9 13 mph 1021.8mb 39f
10:36 9 11 mph 1021.9mb 39f
10:30 8 10 mph 1022mb 39f
10:24 8 11 mph 1022.1mb 39f
10:18 10 13 mph 1022.2mb 39f
10:12 9 13 mph 1022.3mb 39f
10:06 10 14 mph 1022.4mb 39f
10:00 9 11 mph 1022.4mb 39f
9:54 10 11 mph 1022.4mb 39f
9:48 9 10 mph 1022.4mb 39f
9:42 7 9 mph 1022.3mb 39f
9:36 7 11 mph 1022.3mb 39f
9:30 7 9 mph 1022.3mb 39f
9:24 6 9 mph 1022.4mb 39f
9:18 6 8 mph 1022.4mb 39f
9:12 9 13 mph 1022.6mb 39f
9:06 8 10 mph 1022.8mb 39f
9:00 8 10 mph 1022.7mb 39f
8:54 8 11 mph 1022.8mb 39f
8:48 9 11 mph 1022.8mb 39f
8:42 8 11 mph 1023mb 39f
8:36 9 13 mph 1023.1mb 39f
8:30 8 11 mph 1023.4mb 39f
8:24 8 13 mph 1023.4mb 39f
8:18 11 14 mph 1023.6mb 39f
8:12 11 14 mph 1023.7mb 39f
8:06 10 13 mph 1023.6mb 39f
8:00 10 11 mph 1023.7mb 39f
7:54 9 11 mph 1023.7mb 39f
7:48 10 11 mph 1023.6mb 39f
7:42 10 13 mph 1023.5mb 39f
7:36 10 14 mph 1023.3mb 39f
7:30 10 13 mph 1022.9mb 39f
7:24 11 15 mph 1023.3mb 39f
7:18 11 15 mph 1023.5mb 39f
7:12 11 15 mph 1023.7mb 39f
7:06 11 13 mph 1023.7mb 39f
7:00 10 14 mph 1023.6mb 39f
6:54 9 13 mph 1023.6mb 39f
6:48 11 13 mph 1023.6mb 39f
6:42 9 11 mph 1023.7mb 39f
6:36 9 13 mph 1023.7mb 39f
6:30 10 14 mph 1023.9mb 39f
6:24 10 15 mph 1024.1mb 39f
6:18 11 14 mph 1024.2mb 39f
6:12 13 16 mph 1024.3mb 39f
6:06 14 17 mph 1024.4mb 39f
6:00 14 16 mph 1024.3mb 39f
5:54 10 14 mph 1024.4mb 39f
5:48 9 13 mph 1024.3mb 39f
5:42 10 11 mph 1024.2mb 39f
5:36 9 11 mph 1024.1mb 39f
5:30 10 14 mph 1024.1mb 39f
5:24 9 11 mph 1024.2mb 39f
5:18 10 14 mph 1024.3mb 40f
5:12 7 9 mph 1024.2mb 40f
5:06 10 14 mph 1024.2mb 40f
5:00 10 14 mph 1024.3mb 40f
4:54 11 15 mph 1024.3mb 40f
4:48 9 10 mph 1024.3mb 41f
4:42 13 14 mph 1024.3mb 41f
4:36 9 11 mph 1024.2mb 41f
4:30 9 11 mph 1024.3mb 42f
4:24 10 13 mph 1024.2mb 42f
4:18 11 14 mph 1024.2mb 42f
4:12 10 14 mph 1024.3mb 42f
4:06 9 10 mph 1024.3mb 42f
4:00 9 13 mph 1024.3mb 42f
3:54 10 11 mph 1024.4mb 42f
3:48 9 11 mph 1024.5mb 42f
3:42 11 13 mph 1024.5mb 42f
3:36 14 15 mph 1024.6mb 42f
3:30 14 15 mph 1024.8mb 41f
3:24 15
mph
1024.8mb 41f
3:18 13 14 mph 1024.7mb 41f
3:12 11 13 mph 1024.8mb 41f
3:06 11 13 mph 1024.8mb 40f
3:00 10 11 mph 1024.8mb 40f
2:54 11 13 mph 1024.9mb 40f
2:48 14
mph
1025.1mb 40f
2:42 14
mph
1025mb 41f
2:36 15 16 mph 1025.2mb 40f
2:30 15 16 mph 1025.3mb 41f
2:24 11 14 mph 1025.2mb 41f
2:18 9 10 mph 1025.1mb 41f
2:12 7 8 mph 1025.3mb 41f
2:06 6 7 mph 1025.4mb 41f
2:00 5 6 mph 1025.4mb 41f
1:54 6
mph
1025.6mb 41f
1:48 6 7 mph 1025.6mb 41f
1:42 7 8 mph 1025.7mb 41f
1:36 7 8 mph 1025.8mb 41f
1:30 8
mph
1025.9mb 41f
1:24 7 8 mph 1025.9mb 41f
1:18 7 8 mph 1026mb 41f
1:12 7
mph
1026.2mb 41f
1:06 8
mph
1026.3mb 41f
1:00 8
mph
1026.4mb 41f
12:54 8
mph
1026.7mb 40f
12:48 8 9 mph 1026.9mb 40f
12:42 9
mph
1027mb 40f
12:36 8 9 mph 1027.2mb 40f
12:30 7 8 mph 1027.1mb 40f
12:24 7
mph
1027.2mb 40f
12:18 7
mph
1027.2mb 40f
12:12 8
mph
1027.4mb 40f
12:06 7 8 mph 1027.4mb 40f
12:00 7 8 mph 1027.4mb 40f
11:54 7 8 mph 1027.4mb 40f
11:48 8 9 mph 1027.5mb 40f
11:42 8 9 mph 1027.6mb 40f